Tropic Express — J8QB8 — position and weather

sailwx.info

Track history (hours):
 
Tides and Currents Weather Stations Pressure Air Temp Water Temp Dewpoint Dewpoint Depression Visibility Wind Speed Wind Dir Waves Ship Positions

Tropic Express

Last reported at 2017-Dec-14 07:00 UTC. Time now 2017-Dec-15 12:02 UTC.
Position N 17°36' W 064°24'.

Length 107 m; draft 3.5 m.

Type: Ship. MMSI: 377901024.

Wind from 120 at 12 knots

Barometer 1016.5 mb
Air temperature 26.0 ° C
Visibility: greater than 10.8 NM
Dewpoint 24.6 ° C
Water temperature 29.0 ° C

Date/timePositionNaut miles runAvg speedWind from/ knotsBaromVisibWave heightAir tempDewpointWater temp
2017-Dec-14 07:00N 17°36' W 064°24'60 9.2 120 / 121016.510.8 26.024.629.0
2017-Dec-14 00:28N 17°51' W 063°23'4 8.6
2017-Dec-14 00:00N 17°51' W 063°18'5 8.6
2017-Dec-13 23:21N 17°52' W 063°13'4 8.6
2017-Dec-13 22:54N 17°52' W 063°09'4 8.7
2017-Dec-13 22:28N 17°53' W 063°05'5 8.8
2017-Dec-13 21:57N 17°54' W 062°60'5 8.7
2017-Dec-13 21:21N 17°54' W 062°55'1 0.0
2017-Dec-12 20:54N 17°55' W 062°55'512.1
2017-Dec-12 20:30N 17°56' W 062°60'611.8
2017-Dec-12 19:59N 17°59' W 063°05'611.9
2017-Dec-12 19:30N 18°03' W 063°10'611.4
2017-Dec-12 18:57N 18°09' W 063°12'4 0.2
2017-Dec-11 22:10N 18°12' W 063°09'212.0
2017-Dec-11 22:00N 18°11' W 063°11'611.6
2017-Dec-11 21:30N 18°09' W 063°17'611.8
2017-Dec-11 21:00N 18°07' W 063°23'611.4
2017-Dec-11 20:30N 18°05' W 063°28'611.3
2017-Dec-11 20:00N 18°03' W 063°34'78 3.8
2017-Dec-10 23:11N 18°08' W 064°56'212.4
2017-Dec-10 23:00N 18°10' W 064°56'612.2
2017-Dec-10 22:30N 18°16' W 064°56'4 7.5
2017-Dec-10 22:00N 18°20' W 064°57'0 0.0
2017-Dec-10 21:21N 18°20' W 064°57'0 0.0
2017-Dec-10 20:07N 18°20' W 064°57'0 0.0
2017-Dec-10 20:00N 18°20' W 064°57'0 0.0
2017-Dec-10 19:30N 18°20' W 064°57'0 0.0
2017-Dec-10 19:00N 18°20' W 064°57'0 0.0
2017-Dec-10 18:19N 18°20' W 064°57'0 0.0
2017-Dec-10 17:52N 18°20' W 064°57'0 0.0
2017-Dec-10 17:30N 18°20' W 064°57'0 0.0
2017-Dec-10 17:01N 18°20' W 064°57'0 0.1
2017-Dec-10 16:30N 18°20' W 064°57'0 0.1
2017-Dec-10 15:36N 18°20' W 064°57'0 0.0
2017-Dec-10 15:18N 18°20' W 064°57'0 0.0
2017-Dec-10 14:57N 18°20' W 064°57'0 0.0
2017-Dec-10 14:30N 18°20' W 064°57'1 2.6
2017-Dec-10 14:01N 18°19' W 064°58'19 0.6
2017-Dec-09 06:55N 18°23' W 065°17'510.8
2017-Dec-09 06:28N 18°22' W 065°13'510.6
2017-Dec-09 06:00N 18°20' W 065°08'510.5
2017-Dec-09 05:30N 18°17' W 065°03'510.9
2017-Dec-09 05:00N 18°16' W 064°57'510.8
2017-Dec-09 04:30N 18°16' W 064°52'611.0
2017-Dec-09 03:59N 18°16' W 064°46'5 0.5
2017-Dec-08 16:39N 18°17' W 064°40'210.8
2017-Dec-08 16:30N 18°17' W 064°42'510.9
2017-Dec-08 16:00N 18°17' W 064°48'510.9
2017-Dec-08 15:30N 18°17' W 064°53'4 8.4
2017-Dec-08 14:59N 18°20' W 064°57'0 0.0
2017-Dec-08 14:29N 18°20' W 064°57'0 0.0
2017-Dec-08 13:59N 18°20' W 064°57'53 1.7
2017-Dec-07 07:00N 17°48' W 064°12'27 8.1 090 / 171016.5 5.4 25.023.527.0
2017-Dec-07 03:42N 17°59' W 063°46'2 8.3
2017-Dec-07 03:30N 17°59' W 063°45'4 8.4
2017-Dec-07 03:00N 18°01' W 063°40'4321.6
2017-Dec-07 03:00N 18°00' W 063°36'2 4.3 090 / 151018.0 5.4 25.023.533.0
2017-Dec-07 02:30N 18°02' W 063°36'4 8.2
2017-Dec-07 01:59N 18°04' W 063°32'4 8.1
2017-Dec-07 01:30N 18°05' W 063°28'4 8.2
2017-Dec-07 01:01N 18°06' W 063°24'4 8.3
2017-Dec-07 00:30N 18°08' W 063°20'4 8.8
2017-Dec-07 00:00N 18°09' W 063°16'4 8.6
2017-Dec-06 23:29N 18°11' W 063°12'28 0.6
2017-Dec-04 20:00N 17°48' W 062°54'   090 / 161015.210.8 27.024.130.0
Track history (hours):
 
Tides and Currents Weather Stations Pressure Air Temp Water Temp Dewpoint Dewpoint Depression Visibility Wind Speed Wind Dir Waves Ship Positions

Tropic Express

Last reported at 2017-Dec-14 07:00 UTC. Time now 2017-Dec-15 12:02 UTC.
Position N 17°36' W 064°24'.

Length 107 m; draft 3.5 m.

Type: Ship. MMSI: 377901024.

Wind from 120 at 12 knots

Barometer 1016.5 mb
Air temperature 26.0 ° C
Visibility: greater than 10.8 NM
Dewpoint 24.6 ° C
Water temperature 29.0 ° C

Date/timePositionNaut miles runAvg speedWind from/ knotsBaromVisibWave heightAir tempDewpointWater temp
2017-Dec-14 07:00N 17°36' W 064°24'60 9.2 120 / 121016.510.8 26.024.629.0
2017-Dec-14 00:28N 17°51' W 063°23'4 8.6
2017-Dec-14 00:00N 17°51' W 063°18'5 8.6
2017-Dec-13 23:21N 17°52' W 063°13'4 8.6
2017-Dec-13 22:54N 17°52' W 063°09'4 8.7
2017-Dec-13 22:28N 17°53' W 063°05'5 8.8
2017-Dec-13 21:57N 17°54' W 062°60'5 8.7
2017-Dec-13 21:21N 17°54' W 062°55'1 0.0
2017-Dec-12 20:54N 17°55' W 062°55'512.1
2017-Dec-12 20:30N 17°56' W 062°60'611.8
2017-Dec-12 19:59N 17°59' W 063°05'611.9
2017-Dec-12 19:30N 18°03' W 063°10'611.4
2017-Dec-12 18:57N 18°09' W 063°12'4 0.2
2017-Dec-11 22:10N 18°12' W 063°09'212.0
2017-Dec-11 22:00N 18°11' W 063°11'611.6
2017-Dec-11 21:30N 18°09' W 063°17'611.8
2017-Dec-11 21:00N 18°07' W 063°23'611.4
2017-Dec-11 20:30N 18°05' W 063°28'611.3
2017-Dec-11 20:00N 18°03' W 063°34'78 3.8
2017-Dec-10 23:11N 18°08' W 064°56'212.4
2017-Dec-10 23:00N 18°10' W 064°56'612.2
2017-Dec-10 22:30N 18°16' W 064°56'4 7.5
2017-Dec-10 22:00N 18°20' W 064°57'0 0.0
2017-Dec-10 21:21N 18°20' W 064°57'0 0.0
2017-Dec-10 20:07N 18°20' W 064°57'0 0.0
2017-Dec-10 20:00N 18°20' W 064°57'0 0.0
2017-Dec-10 19:30N 18°20' W 064°57'0 0.0
2017-Dec-10 19:00N 18°20' W 064°57'0 0.0
2017-Dec-10 18:19N 18°20' W 064°57'0 0.0
2017-Dec-10 17:52N 18°20' W 064°57'0 0.0
2017-Dec-10 17:30N 18°20' W 064°57'0 0.0
2017-Dec-10 17:01N 18°20' W 064°57'0 0.1
2017-Dec-10 16:30N 18°20' W 064°57'0 0.1
2017-Dec-10 15:36N 18°20' W 064°57'0 0.0
2017-Dec-10 15:18N 18°20' W 064°57'0 0.0
2017-Dec-10 14:57N 18°20' W 064°57'0 0.0
2017-Dec-10 14:30N 18°20' W 064°57'1 2.6
2017-Dec-10 14:01N 18°19' W 064°58'19 0.6
2017-Dec-09 06:55N 18°23' W 065°17'510.8
2017-Dec-09 06:28N 18°22' W 065°13'510.6
2017-Dec-09 06:00N 18°20' W 065°08'510.5
2017-Dec-09 05:30N 18°17' W 065°03'510.9
2017-Dec-09 05:00N 18°16' W 064°57'510.8
2017-Dec-09 04:30N 18°16' W 064°52'611.0
2017-Dec-09 03:59N 18°16' W 064°46'5 0.5
2017-Dec-08 16:39N 18°17' W 064°40'210.8
2017-Dec-08 16:30N 18°17' W 064°42'510.9
2017-Dec-08 16:00N 18°17' W 064°48'510.9
2017-Dec-08 15:30N 18°17' W 064°53'4 8.4
2017-Dec-08 14:59N 18°20' W 064°57'0 0.0
2017-Dec-08 14:29N 18°20' W 064°57'0 0.0
2017-Dec-08 13:59N 18°20' W 064°57'53 1.7
2017-Dec-07 07:00N 17°48' W 064°12'27 8.1 090 / 171016.5 5.4 25.023.527.0
2017-Dec-07 03:42N 17°59' W 063°46'2 8.3
2017-Dec-07 03:30N 17°59' W 063°45'4 8.4
2017-Dec-07 03:00N 18°01' W 063°40'4321.6
2017-Dec-07 03:00N 18°00' W 063°36'2 4.3 090 / 151018.0 5.4 25.023.533.0
2017-Dec-07 02:30N 18°02' W 063°36'4 8.2
2017-Dec-07 01:59N 18°04' W 063°32'4 8.1
2017-Dec-07 01:30N 18°05' W 063°28'4 8.2
2017-Dec-07 01:01N 18°06' W 063°24'4 8.3
2017-Dec-07 00:30N 18°08' W 063°20'4 8.8
2017-Dec-07 00:00N 18°09' W 063°16'4 8.6
2017-Dec-06 23:29N 18°11' W 063°12'28 0.6
2017-Dec-04 20:00N 17°48' W 062°54'   090 / 161015.210.8 27.024.130.0

Dump ship's entire track history